• Join FlightAware (Why Join?)
  • Login
  • US Flag 
Rudolph Flight #1: Arrived! 
05:26AM EST


 

Airport Tracker/Info


-or-


 

Live Flight TrackerFlight Track Log ✈ CPZ5734 ✈ 19-Sep-2013 ✈ KSLC - KMCI

Flight Track Log - Related Links

Times and Time Zones

All times are in EDT time to prevent confusion due to time zone crossing. See the CPZ5734 flight status page for this flight to view local times or setup timezone preferences in your user account.

Time Position Orientation Groundspeed Altitude Reporting Facility
EDT Latitude Longitude Course Direction KTS MPH feet Rate Location/Type
12:02AM 40.8108 -112.0006 99° East 181 208 4,700  Level Salt Lake Center
12:04AM 40.8769 -112.0092 354° North 219 252 6,500 1,380 Climbing Salt Lake Center
12:04AM 40.8767 -112.0072 101° East 199 229 6,500 2,280 Level Salt Lake Center
12:04AM 40.9361 -112.0147 355° North 259 298 8,400 2,280 Climbing Salt Lake Center
12:05AM 41.0331 -111.7047 146° Southeast  Level FlightAware Approximate
12:05AM 40.9503 -112.0169 353° North 259 298 8,900  Level Salt Lake Center
12:06AM 40.9315 -111.6133 146° Southeast  Level FlightAware Approximate
12:06AM 41.0233 -111.9939 13° North 297 342 11,200  Level Salt Lake Center
12:07AM 40.9089 -111.4620 101° East  Level FlightAware Approximate
12:07AM 41.0114 -111.8881 98° East 318 366 13,400  Level Salt Lake Center
12:08AM 40.8940 -111.3012 99° East  Level FlightAware Approximate
12:08AM 40.9681 -111.7531 113° Southeast 358 412 14,600  Level Salt Lake Center
12:09AM 40.9322 -111.6225 110° East 381 438 16,300 1,680 Climbing Salt Lake Center
12:10AM 40.9331 -111.4792 90° East 393 452 18,100 1,680 Climbing Salt Lake Center
12:11AM 40.9356 -111.3319 89° East 402 463 19,800 1,620 Climbing Salt Lake Center
12:12AM 40.9372 -111.1806 89° East 412 474 21,500 1,440 Climbing Salt Lake Center
12:13AM 40.9394 -111.0236 89° East 426 490 22,800 1,320 Climbing Salt Lake Center
12:14AM 40.9411 -110.8619 89° East 440 506 24,200 1,500 Climbing Salt Lake Center
12:15AM 40.9450 -110.6653 88° East 447 514 25,900 1,380 Climbing Salt Lake Center
12:16AM 40.9458 -110.5103 90° East 452 520 27,100 1,080 Climbing Salt Lake Center
12:17AM 40.9483 -110.3233 89° East 457 526 28,200 900 Climbing Salt Lake Center
12:18AM 40.9489 -110.1603 90° East 463 533 29,000 720 Climbing Salt Lake Center
12:19AM 40.9497 -109.9953 90° East 468 539 29,700 840 Climbing Salt Lake Center
12:20AM 40.9503 -109.8039 90° East 469 540 30,800 900 Climbing Salt Lake Center
12:21AM 40.9508 -109.6394 90° East 469 540 31,600 840 Climbing Salt Lake Center
12:22AM 40.9511 -109.4481 90° East 469 540 32,600 780 Climbing Salt Lake Center
12:23AM 40.9514 -109.2844 90° East 468 539 33,200 600 Climbing Salt Lake Center
12:24AM 40.9508 -109.0917 90° East 472 543 33,900 660 Climbing Salt Lake Center
12:25AM 40.9511 -108.9272 90° East 472 543 34,600 480 Climbing Salt Lake Center
12:26AM 40.9506 -108.7656 90° East 466 536 35,000 180 Climbing Salt Lake Center
12:27AM 40.9492 -108.5719 90° East 474 545 35,000  Level Salt Lake Center
12:28AM 40.9486 -108.4028 90° East 481 554 35,000  Level Salt Lake Center
12:29AM 40.9450 -108.2042 91° East 486 559 35,000  Level Salt Lake Center
12:30AM 40.9433 -108.0042 91° East 485 558 35,000  Level Denver Center
12:31AM 40.9411 -107.8319 91° East 488 562 35,000  Level Denver Center
12:32AM 40.9394 -107.6294 91° East 493 567 35,000  Level Denver Center
12:33AM 40.9361 -107.4558 91° East 495 570 35,000  Level Denver Center
12:34AM 40.9331 -107.2819 91° East 495 570 35,000  Level Denver Center
12:35AM 40.9294 -107.0792 91° East 495 570 35,000  Level Denver Center
12:37AM 40.9256 -106.9025 92° East 501 577 35,000  Level Denver Center
12:38AM 40.9222 -106.7253 91° East 504 580 35,000  Level Denver Center
12:39AM 40.9169 -106.5172 92° East 509 586 35,000  Level Denver Center
12:40AM 40.9119 -106.3375 92° East 512 589 35,000  Level Denver Center
12:41AM 40.9094 -106.1878 91° East 513 590 35,000  Level Denver Center
12:42AM 40.9017 -105.9572 92° East 511 588 35,000  Level Denver Center
12:43AM 40.8956 -105.7703 92° East 511 588 35,000  Level Denver Center
12:44AM 40.8875 -105.5078 92° East 511 588 35,000  Level Denver Center
12:45AM 40.8819 -105.3211 92° East 508 585 35,000  Level Denver Center
12:46AM 40.8744 -105.1328 93° East 512 589 35,000  Level Denver Center
12:47AM 40.8686 -104.9439 92° East 513 590 35,000  Level Denver Center
12:48AM 40.8606 -104.7550 93° East 515 593 35,000  Level Denver Center
12:49AM 40.8522 -104.5672 93° East 514 592 35,000  Level Denver Center
12:50AM 40.8444 -104.3767 93° East 518 596 35,000  Level Denver Center
12:51AM 40.8339 -104.1492 93° East 517 595 35,000  Level Denver Center
12:52AM 40.8261 -103.9628 93° East 511 588 35,000  Level Denver Center
12:53AM 40.8181 -103.7753 93° East 511 588 35,000  Level Denver Center
12:54AM 40.8078 -103.5875 94° East 511 588 35,000  Level Denver Center
12:55AM 40.8000 -103.4369 94° East 514 592 35,000  Level Denver Center
12:56AM 40.7875 -103.2111 94° East 516 594 35,000  Level Denver Center
12:57AM 40.7778 -103.0208 94° East 520 598 35,000  Level Denver Center
12:58AM 40.7675 -102.8483 94° East 521 600 35,000  Level Denver Center
12:59AM 40.7572 -102.6386 94° East 514 592 35,000  Level Denver Center
01:00AM 40.7456 -102.4558 95° East 521 600 35,000  Level Denver Center
01:01AM 40.7342 -102.2731 95° East 523 602 35,000  Level Denver Center
01:02AM 40.7211 -102.0619 95° East 519 597 35,000  Level Denver Center
01:03AM 40.7097 -101.8814 95° East 519 597 35,000  Level Denver Center
01:04AM 40.7003 -101.7306 95° East 520 598 35,000  Level Denver Center
01:05AM 40.6703 -101.4964 100° East 509 586 35,000  Level Denver Center
01:06AM 40.6397 -101.3253 103° East 505 581 35,000  Level Denver Center
01:07AM 40.6050 -101.1258 103° East 504 580 35,000  Level Denver Center
01:08AM 40.5756 -100.9542 103° East 507 583 35,000  Level Denver Center
01:09AM 40.5453 -100.7831 103° East 509 586 35,000  Level Denver Center
01:11AM 40.4792 -100.4097 103° East 510 587 35,000  Level Denver Center
01:12AM 40.4478 -100.2356 103° East 514 592 35,000  Level Denver Center
01:13AM 40.4111 -100.0331 103° East 514 592 35,000  Level Denver Center
01:14AM 40.3814 -99.8714 104° East 509 586 35,000  Level Denver Center
01:15AM 40.3483 -99.6939 104° East 504 580 35,000  Level Denver Center
01:16AM 40.3144 -99.5142 104° East 508 585 35,000  Level Denver Center
01:17AM 40.2806 -99.3344 104° East 510 587 35,000  Level Denver Center
01:18AM 40.2472 -99.1578 104° East 506 582 35,000  Level Denver Center
01:19AM 40.2267 -99.0533 104° East 507 583 35,000  Level Minneapolis Center
01:22AM 40.1447 -98.6746 104° East  Level FlightAware Approximate
01:27AM 39.9400 -97.6156 105° East 492 566 35,000  Level Kansas City Center
01:28AM 39.9036 -97.4439 105° East 490 564 35,000  Level Minneapolis Center
01:29AM 39.9258 -97.5738 104° East  Level FlightAware Approximate
01:29AM 39.8744 -97.3044 105° East 491 565 35,000  Level Minneapolis Center
01:30AM 39.8937 -97.4171 105° East  Level FlightAware Approximate
01:30AM 39.8328 -97.1042 105° East 483 556 34,300  Level Minneapolis Center
01:31AM 39.8557 -97.2628 109° East  Level FlightAware Approximate
01:31AM 39.7978 -96.9436 106° East 470 541 33,200  Level Minneapolis Center
01:32AM 39.8153 -97.1097 105° East  Level FlightAware Approximate
01:32AM 39.7644 -96.7847 105° East 463 533 32,300  Level Minneapolis Center
01:33AM 39.7840 -96.9529 105° East  Level FlightAware Approximate
01:33AM 39.7294 -96.6242 106° East 462 532 31,300  Level Minneapolis Center
01:34AM 39.6878 -96.4342 106° East 469 540 28,900 -2,220 Descending Kansas City Center
01:35AM 39.6542 -96.2797 106° East 466 536 26,600 -2,340 Descending Kansas City Center
01:36AM 39.6211 -96.1322 106° East 448 516 24,300 -2,280 Descending Kansas City Center
01:37AM 39.5894 -95.9908 106° East 430 495 22,100 -2,340 Descending Kansas City Center
01:38AM 39.5544 -95.8328 106° East 412 474 19,700 -2,220 Descending Kansas City Center
01:39AM 39.5247 -95.7025 106° East 397 457 17,700 -1,920 Descending Kansas City Center
01:40AM 39.4861 -95.5833 113° Southeast 380 437 15,900 -1,920 Descending Kansas City Center
01:41AM 39.4436 -95.4542 113° Southeast 370 426 13,800 -1,980 Descending Kansas City Center
01:42AM 39.4033 -95.3319 113° Southeast 359 413 11,900 -1,620 Descending Kansas City Center
01:43AM 39.3678 -95.2250 113° Southeast 338 389 10,600 -1,500 Descending Kansas City Center
01:44AM 39.3353 -95.1233 112° Southeast 317 365 9,000 -1,620 Descending Kansas City Center
01:45AM 39.3014 -95.0250 114° Southeast 311 358 7,400 -1,440 Descending Kansas City Center
01:46AM 39.2658 -94.9203 114° Southeast 279 321 6,100 -1,320 Descending Kansas City Center
01:49AM 39.2167 -94.7333 109° East 138 159 2,400 -1,140 Descending Kansas City TRACON
01:50AM 39.2514 -94.7178 19° North 123 142 1,600 -720 Descending Kansas City Center